sensor_id;sensor_type;location;lat;lon;timestamp;P1;durP1;ratioP1;P2;durP2;ratioP2
6823;SDS011;58633;49.470;11.004;2023-03-01T00:01:49;18.33;;;11.07;;
6823;SDS011;58633;49.470;11.004;2023-03-01T00:04:15;18.60;;;11.17;;
6823;SDS011;58633;49.470;11.004;2023-03-01T00:06:42;24.30;;;11.30;;
6823;SDS011;58633;49.470;11.004;2023-03-01T00:09:10;20.33;;;11.47;;
6823;SDS011;58633;49.470;11.004;2023-03-01T00:11:36;21.50;;;11.57;;
6823;SDS011;58633;49.470;11.004;2023-03-01T00:14:02;21.53;;;10.93;;
6823;SDS011;58633;49.470;11.004;2023-03-01T00:16:36;18.77;;;11.47;;
6823;SDS011;58633;49.470;11.004;2023-03-01T00:19:04;18.17;;;11.13;;
6823;SDS011;58633;49.470;11.004;2023-03-01T00:21:30;19.60;;;11.03;;
6823;SDS011;58633;49.470;11.004;2023-03-01T00:23:56;19.87;;;11.40;;
6823;SDS011;58633;49.470;11.004;2023-03-01T00:26:23;19.07;;;11.33;;
6823;SDS011;58633;49.470;11.004;2023-03-01T00:28:50;22.80;;;11.83;;
6823;SDS011;58633;49.470;11.004;2023-03-01T00:31:17;20.57;;;10.90;;
6823;SDS011;58633;49.470;11.004;2023-03-01T00:33:45;18.87;;;11.17;;
6823;SDS011;58633;49.470;11.004;2023-03-01T00:36:11;19.20;;;10.87;;
6823;SDS011;58633;49.470;11.004;2023-03-01T00:38:39;18.30;;;11.03;;
6823;SDS011;58633;49.470;11.004;2023-03-01T00:41:06;18.60;;;11.13;;
6823;SDS011;58633;49.470;11.004;2023-03-01T00:43:34;17.03;;;10.80;;
6823;SDS011;58633;49.470;11.004;2023-03-01T00:46:14;21.67;;;11.13;;
6823;SDS011;58633;49.470;11.004;2023-03-01T00:48:41;21.50;;;11.13;;
6823;SDS011;58633;49.470;11.004;2023-03-01T00:51:12;19.17;;;11.13;;
6823;SDS011;58633;49.470;11.004;2023-03-01T00:53:42;20.23;;;11.20;;
6823;SDS011;58633;49.470;11.004;2023-03-01T00:56:09;16.23;;;9.43;;
6823;SDS011;58633;49.470;11.004;2023-03-01T00:58:36;19.30;;;10.80;;
6823;SDS011;58633;49.470;11.004;2023-03-01T01:01:13;19.17;;;10.80;;
6823;SDS011;58633;49.470;11.004;2023-03-01T01:03:47;19.50;;;10.50;;
6823;SDS011;58633;49.470;11.004;2023-03-01T01:06:18;17.93;;;10.53;;
6823;SDS011;58633;49.470;11.004;2023-03-01T01:08:54;18.47;;;11.17;;
6823;SDS011;58633;49.470;11.004;2023-03-01T01:11:21;18.87;;;10.83;;
6823;SDS011;58633;49.470;11.004;2023-03-01T01:13:49;19.47;;;10.63;;
6823;SDS011;58633;49.470;11.004;2023-03-01T01:16:15;18.20;;;10.97;;
6823;SDS011;58633;49.470;11.004;2023-03-01T01:18:42;17.63;;;11.07;;
6823;SDS011;58633;49.470;11.004;2023-03-01T01:21:12;17.60;;;11.20;;
6823;SDS011;58633;49.470;11.004;2023-03-01T01:23:40;17.97;;;10.67;;
6823;SDS011;58633;49.470;11.004;2023-03-01T01:26:07;18.80;;;10.67;;
6823;SDS011;58633;49.470;11.004;2023-03-01T01:28:38;17.37;;;10.53;;
6823;SDS011;58633;49.470;11.004;2023-03-01T01:31:04;18.13;;;10.37;;
6823;SDS011;58633;49.470;11.004;2023-03-01T01:33:30;18.17;;;10.33;;
6823;SDS011;58633;49.470;11.004;2023-03-01T01:35:56;18.57;;;10.80;;
6823;SDS011;58633;49.470;11.004;2023-03-01T01:38:22;18.13;;;10.57;;
6823;SDS011;58633;49.470;11.004;2023-03-01T01:40:48;18.60;;;10.00;;
6823;SDS011;58633;49.470;11.004;2023-03-01T01:43:19;19.93;;;10.77;;
6823;SDS011;58633;49.470;11.004;2023-03-01T01:45:50;17.37;;;10.40;;
6823;SDS011;58633;49.470;11.004;2023-03-01T01:48:20;19.40;;;10.97;;
6823;SDS011;58633;49.470;11.004;2023-03-01T01:50:54;17.60;;;10.30;;
6823;SDS011;58633;49.470;11.004;2023-03-01T01:53:23;17.33;;;10.37;;
6823;SDS011;58633;49.470;11.004;2023-03-01T01:55:54;18.40;;;11.13;;
6823;SDS011;58633;49.470;11.004;2023-03-01T01:58:22;18.77;;;10.43;;
6823;SDS011;58633;49.470;11.004;2023-03-01T02:00:52;18.17;;;10.70;;
6823;SDS011;58633;49.470;11.004;2023-03-01T02:03:20;19.80;;;11.03;;
6823;SDS011;58633;49.470;11.004;2023-03-01T02:05:55;20.87;;;11.33;;
6823;SDS011;58633;49.470;11.004;2023-03-01T02:08:28;18.53;;;10.53;;
6823;SDS011;58633;49.470;11.004;2023-03-01T02:10:55;18.33;;;10.87;;
6823;SDS011;58633;49.470;11.004;2023-03-01T02:13:22;18.73;;;10.83;;
6823;SDS011;58633;49.470;11.004;2023-03-01T02:15:48;20.70;;;10.63;;
6823;SDS011;58633;49.470;11.004;2023-03-01T02:18:14;18.97;;;10.93;;
6823;SDS011;58633;49.470;11.004;2023-03-01T02:20:50;21.37;;;10.70;;
6823;SDS011;58633;49.470;11.004;2023-03-01T02:23:29;18.47;;;10.80;;
6823;SDS011;58633;49.470;11.004;2023-03-01T02:26:04;16.77;;;10.77;;
6823;SDS011;58633;49.470;11.004;2023-03-01T02:28:43;17.43;;;10.70;;
6823;SDS011;58633;49.470;11.004;2023-03-01T02:31:10;19.40;;;10.73;;
6823;SDS011;58633;49.470;11.004;2023-03-01T02:33:58;16.43;;;10.37;;
6823;SDS011;58633;49.470;11.004;2023-03-01T02:36:26;17.47;;;10.10;;
6823;SDS011;58633;49.470;11.004;2023-03-01T02:38:58;19.10;;;10.80;;
6823;SDS011;58633;49.470;11.004;2023-03-01T02:41:27;19.40;;;10.63;;
6823;SDS011;58633;49.470;11.004;2023-03-01T02:43:55;19.17;;;10.93;;
6823;SDS011;58633;49.470;11.004;2023-03-01T02:46:22;22.27;;;10.80;;
6823;SDS011;58633;49.470;11.004;2023-03-01T02:48:53;18.47;;;10.80;;
6823;SDS011;58633;49.470;11.004;2023-03-01T02:51:24;19.57;;;11.33;;
6823;SDS011;58633;49.470;11.004;2023-03-01T02:54:05;20.93;;;11.00;;
6823;SDS011;58633;49.470;11.004;2023-03-01T02:56:39;18.47;;;10.17;;
6823;SDS011;58633;49.470;11.004;2023-03-01T02:59:06;17.50;;;10.27;;
6823;SDS011;58633;49.470;11.004;2023-03-01T03:01:33;20.03;;;10.53;;
6823;SDS011;58633;49.470;11.004;2023-03-01T03:04:03;20.53;;;11.33;;
6823;SDS011;58633;49.470;11.004;2023-03-01T03:06:29;21.40;;;11.00;;
6823;SDS011;58633;49.470;11.004;2023-03-01T03:08:55;20.37;;;11.13;;
6823;SDS011;58633;49.470;11.004;2023-03-01T03:11:20;18.50;;;10.80;;
6823;SDS011;58633;49.470;11.004;2023-03-01T03:13:46;18.17;;;10.70;;
6823;SDS011;58633;49.470;11.004;2023-03-01T03:16:13;22.47;;;10.93;;
6823;SDS011;58633;49.470;11.004;2023-03-01T03:18:38;20.37;;;11.43;;
6823;SDS011;58633;49.470;11.004;2023-03-01T03:21:07;21.13;;;10.80;;
6823;SDS011;58633;49.470;11.004;2023-03-01T03:23:35;18.10;;;11.10;;
6823;SDS011;58633;49.470;11.004;2023-03-01T03:26:01;17.30;;;10.63;;
6823;SDS011;58633;49.470;11.004;2023-03-01T03:28:29;20.13;;;10.77;;
6823;SDS011;58633;49.470;11.004;2023-03-01T03:30:55;19.30;;;10.63;;
6823;SDS011;58633;49.470;11.004;2023-03-01T03:33:22;19.30;;;11.13;;
6823;SDS011;58633;49.470;11.004;2023-03-01T03:35:48;20.63;;;11.40;;
6823;SDS011;58633;49.470;11.004;2023-03-01T03:38:15;19.67;;;11.23;;
6823;SDS011;58633;49.470;11.004;2023-03-01T03:40:48;19.20;;;10.43;;
6823;SDS011;58633;49.470;11.004;2023-03-01T03:43:16;21.80;;;11.27;;
6823;SDS011;58633;49.470;11.004;2023-03-01T03:45:50;18.53;;;10.63;;
6823;SDS011;58633;49.470;11.004;2023-03-01T03:48:16;19.17;;;10.70;;
6823;SDS011;58633;49.470;11.004;2023-03-01T03:50:46;20.63;;;11.20;;
6823;SDS011;58633;49.470;11.004;2023-03-01T03:53:13;20.07;;;11.13;;
6823;SDS011;58633;49.470;11.004;2023-03-01T03:55:39;21.47;;;10.97;;
6823;SDS011;58633;49.470;11.004;2023-03-01T03:58:05;17.90;;;10.20;;
6823;SDS011;58633;49.470;11.004;2023-03-01T04:00:43;20.20;;;10.97;;
6823;SDS011;58633;49.470;11.004;2023-03-01T04:03:09;19.57;;;11.33;;
6823;SDS011;58633;49.470;11.004;2023-03-01T04:05:36;18.57;;;11.27;;
6823;SDS011;58633;49.470;11.004;2023-03-01T04:08:03;20.97;;;11.77;;
6823;SDS011;58633;49.470;11.004;2023-03-01T04:10:33;23.03;;;11.50;;
6823;SDS011;58633;49.470;11.004;2023-03-01T04:13:01;21.00;;;11.00;;
6823;SDS011;58633;49.470;11.004;2023-03-01T04:15:27;18.63;;;11.13;;
6823;SDS011;58633;49.470;11.004;2023-03-01T04:17:53;22.87;;;11.57;;
6823;SDS011;58633;49.470;11.004;2023-03-01T04:20:21;20.67;;;11.77;;
6823;SDS011;58633;49.470;11.004;2023-03-01T04:22:52;21.10;;;11.83;;
6823;SDS011;58633;49.470;11.004;2023-03-01T04:25:41;22.13;;;10.50;;
6823;SDS011;58633;49.470;11.004;2023-03-01T04:28:18;25.80;;;11.33;;
6823;SDS011;58633;49.470;11.004;2023-03-01T04:30:44;21.63;;;11.50;;
6823;SDS011;58633;49.470;11.004;2023-03-01T04:33:10;19.70;;;11.10;;
6823;SDS011;58633;49.470;11.004;2023-03-01T04:35:36;20.13;;;11.30;;
6823;SDS011;58633;49.470;11.004;2023-03-01T04:38:03;20.27;;;11.27;;
6823;SDS011;58633;49.470;11.004;2023-03-01T04:40:29;20.57;;;11.77;;
6823;SDS011;58633;49.470;11.004;2023-03-01T04:42:55;19.33;;;11.17;;
6823;SDS011;58633;49.470;11.004;2023-03-01T04:45:21;20.83;;;11.60;;
6823;SDS011;58633;49.470;11.004;2023-03-01T04:47:47;21.30;;;11.40;;
6823;SDS011;58633;49.470;11.004;2023-03-01T04:50:14;18.40;;;10.57;;
6823;SDS011;58633;49.470;11.004;2023-03-01T04:52:42;18.13;;;10.40;;
6823;SDS011;58633;49.470;11.004;2023-03-01T04:55:09;24.37;;;11.57;;
6823;SDS011;58633;49.470;11.004;2023-03-01T04:57:35;18.83;;;11.17;;
6823;SDS011;58633;49.470;11.004;2023-03-01T05:00:00;20.90;;;10.97;;
6823;SDS011;58633;49.470;11.004;2023-03-01T05:02:44;21.97;;;11.13;;
6823;SDS011;58633;49.470;11.004;2023-03-01T05:05:11;20.73;;;11.23;;
6823;SDS011;58633;49.470;11.004;2023-03-01T05:07:36;20.70;;;11.57;;
6823;SDS011;58633;49.470;11.004;2023-03-01T05:10:02;18.87;;;11.00;;
6823;SDS011;58633;49.470;11.004;2023-03-01T05:12:28;22.00;;;12.10;;
6823;SDS011;58633;49.470;11.004;2023-03-01T05:14:53;19.50;;;11.00;;
6823;SDS011;58633;49.470;11.004;2023-03-01T05:17:19;24.20;;;12.00;;
6823;SDS011;58633;49.470;11.004;2023-03-01T05:19:44;20.50;;;10.90;;
6823;SDS011;58633;49.470;11.004;2023-03-01T05:22:11;17.10;;;10.53;;
6823;SDS011;58633;49.470;11.004;2023-03-01T05:24:37;19.37;;;10.23;;
6823;SDS011;58633;49.470;11.004;2023-03-01T05:27:03;20.10;;;11.43;;
6823;SDS011;58633;49.470;11.004;2023-03-01T05:29:30;21.23;;;11.67;;
6823;SDS011;58633;49.470;11.004;2023-03-01T05:31:59;23.03;;;12.23;;
6823;SDS011;58633;49.470;11.004;2023-03-01T05:34:31;25.43;;;11.67;;
6823;SDS011;58633;49.470;11.004;2023-03-01T05:36:59;20.73;;;11.70;;
6823;SDS011;58633;49.470;11.004;2023-03-01T05:39:25;23.70;;;12.30;;
6823;SDS011;58633;49.470;11.004;2023-03-01T05:41:53;22.23;;;11.83;;
6823;SDS011;58633;49.470;11.004;2023-03-01T05:44:23;21.20;;;11.23;;
6823;SDS011;58633;49.470;11.004;2023-03-01T05:46:50;20.70;;;11.80;;
6823;SDS011;58633;49.470;11.004;2023-03-01T05:49:15;23.73;;;11.93;;
6823;SDS011;58633;49.470;11.004;2023-03-01T05:51:42;21.03;;;11.73;;
6823;SDS011;58633;49.470;11.004;2023-03-01T05:54:11;26.77;;;12.23;;
6823;SDS011;58633;49.470;11.004;2023-03-01T05:56:37;21.87;;;11.30;;
6823;SDS011;58633;49.470;11.004;2023-03-01T05:59:03;21.23;;;11.53;;
6823;SDS011;58633;49.470;11.004;2023-03-01T06:01:32;21.57;;;11.17;;
6823;SDS011;58633;49.470;11.004;2023-03-01T06:03:59;21.20;;;11.23;;
6823;SDS011;58633;49.470;11.004;2023-03-01T06:06:25;23.43;;;11.07;;
6823;SDS011;58633;49.470;11.004;2023-03-01T06:08:51;20.80;;;11.20;;
6823;SDS011;58633;49.470;11.004;2023-03-01T06:11:17;23.90;;;11.57;;
6823;SDS011;58633;49.470;11.004;2023-03-01T06:13:43;20.47;;;11.10;;
6823;SDS011;58633;49.470;11.004;2023-03-01T06:16:10;21.67;;;11.80;;
6823;SDS011;58633;49.470;11.004;2023-03-01T06:18:36;22.23;;;11.90;;
6823;SDS011;58633;49.470;11.004;2023-03-01T06:21:02;22.07;;;11.17;;
6823;SDS011;58633;49.470;11.004;2023-03-01T06:23:29;19.63;;;11.23;;
6823;SDS011;58633;49.470;11.004;2023-03-01T06:25:54;21.23;;;11.63;;
6823;SDS011;58633;49.470;11.004;2023-03-01T06:28:20;22.60;;;11.73;;
6823;SDS011;58633;49.470;11.004;2023-03-01T06:30:46;23.07;;;12.23;;
6823;SDS011;58633;49.470;11.004;2023-03-01T06:33:12;22.90;;;11.67;;
6823;SDS011;58633;49.470;11.004;2023-03-01T06:35:38;26.13;;;12.80;;
6823;SDS011;58633;49.470;11.004;2023-03-01T06:38:03;23.27;;;12.57;;
6823;SDS011;58633;49.470;11.004;2023-03-01T06:40:30;26.03;;;13.33;;
6823;SDS011;58633;49.470;11.004;2023-03-01T06:42:56;24.60;;;13.20;;
6823;SDS011;58633;49.470;11.004;2023-03-01T06:45:22;28.03;;;13.23;;
6823;SDS011;58633;49.470;11.004;2023-03-01T06:47:48;22.23;;;12.33;;
6823;SDS011;58633;49.470;11.004;2023-03-01T06:50:17;23.33;;;12.13;;
6823;SDS011;58633;49.470;11.004;2023-03-01T06:52:43;26.30;;;12.77;;
6823;SDS011;58633;49.470;11.004;2023-03-01T06:55:10;25.23;;;12.87;;
6823;SDS011;58633;49.470;11.004;2023-03-01T06:57:37;24.63;;;11.80;;
6823;SDS011;58633;49.470;11.004;2023-03-01T07:00:04;21.60;;;12.20;;
6823;SDS011;58633;49.470;11.004;2023-03-01T07:02:31;23.67;;;12.13;;
6823;SDS011;58633;49.470;11.004;2023-03-01T07:04:56;23.60;;;12.50;;
6823;SDS011;58633;49.470;11.004;2023-03-01T07:07:22;23.03;;;12.53;;
6823;SDS011;58633;49.470;11.004;2023-03-01T07:09:48;21.87;;;12.37;;
6823;SDS011;58633;49.470;11.004;2023-03-01T07:12:14;26.13;;;13.63;;
6823;SDS011;58633;49.470;11.004;2023-03-01T07:14:40;22.27;;;12.47;;
6823;SDS011;58633;49.470;11.004;2023-03-01T07:17:05;25.87;;;12.53;;
6823;SDS011;58633;49.470;11.004;2023-03-01T07:19:31;22.40;;;12.50;;
6823;SDS011;58633;49.470;11.004;2023-03-01T07:21:57;23.77;;;12.33;;
6823;SDS011;58633;49.470;11.004;2023-03-01T07:24:22;21.30;;;12.33;;
6823;SDS011;58633;49.470;11.004;2023-03-01T07:26:48;21.50;;;12.90;;
6823;SDS011;58633;49.470;11.004;2023-03-01T07:29:15;26.17;;;12.50;;
6823;SDS011;58633;49.470;11.004;2023-03-01T07:31:41;22.40;;;11.70;;
6823;SDS011;58633;49.470;11.004;2023-03-01T07:34:06;23.30;;;13.47;;
6823;SDS011;58633;49.470;11.004;2023-03-01T07:36:32;23.37;;;12.37;;
6823;SDS011;58633;49.470;11.004;2023-03-01T07:38:58;23.27;;;12.93;;
6823;SDS011;58633;49.470;11.004;2023-03-01T07:41:23;22.70;;;12.47;;
6823;SDS011;58633;49.470;11.004;2023-03-01T07:43:49;21.43;;;11.97;;
6823;SDS011;58633;49.470;11.004;2023-03-01T07:46:14;27.13;;;12.80;;
6823;SDS011;58633;49.470;11.004;2023-03-01T07:48:40;22.50;;;12.23;;
6823;SDS011;58633;49.470;11.004;2023-03-01T07:51:06;24.80;;;12.90;;
6823;SDS011;58633;49.470;11.004;2023-03-01T07:53:32;22.10;;;12.17;;
6823;SDS011;58633;49.470;11.004;2023-03-01T07:56:04;22.20;;;11.73;;
6823;SDS011;58633;49.470;11.004;2023-03-01T07:58:36;24.43;;;12.67;;
6823;SDS011;58633;49.470;11.004;2023-03-01T08:01:07;23.07;;;12.37;;
6823;SDS011;58633;49.470;11.004;2023-03-01T08:03:37;23.50;;;12.07;;
6823;SDS011;58633;49.470;11.004;2023-03-01T08:06:04;25.57;;;13.80;;
6823;SDS011;58633;49.470;11.004;2023-03-01T08:08:31;22.23;;;13.13;;
6823;SDS011;58633;49.470;11.004;2023-03-01T08:10:57;23.03;;;12.20;;
6823;SDS011;58633;49.470;11.004;2023-03-01T08:13:24;23.90;;;13.27;;
6823;SDS011;58633;49.470;11.004;2023-03-01T08:15:50;23.10;;;12.90;;
6823;SDS011;58633;49.470;11.004;2023-03-01T08:18:17;22.57;;;12.73;;
6823;SDS011;58633;49.470;11.004;2023-03-01T08:20:44;20.10;;;12.27;;
6823;SDS011;58633;49.470;11.004;2023-03-01T08:23:09;21.17;;;12.00;;
6823;SDS011;58633;49.470;11.004;2023-03-01T08:25:35;22.00;;;11.97;;
6823;SDS011;58633;49.470;11.004;2023-03-01T08:28:01;22.80;;;12.30;;
6823;SDS011;58633;49.470;11.004;2023-03-01T08:30:27;22.47;;;12.50;;
6823;SDS011;58633;49.470;11.004;2023-03-01T08:32:52;21.33;;;12.17;;
6823;SDS011;58633;49.470;11.004;2023-03-01T08:35:18;22.57;;;12.60;;
6823;SDS011;58633;49.470;11.004;2023-03-01T08:37:45;24.60;;;12.47;;
6823;SDS011;58633;49.470;11.004;2023-03-01T08:40:11;21.17;;;12.20;;
6823;SDS011;58633;49.470;11.004;2023-03-01T08:42:38;20.67;;;12.23;;
6823;SDS011;58633;49.470;11.004;2023-03-01T08:45:04;18.77;;;11.70;;
6823;SDS011;58633;49.470;11.004;2023-03-01T08:47:31;23.87;;;12.50;;
6823;SDS011;58633;49.470;11.004;2023-03-01T08:49:58;22.37;;;12.07;;
6823;SDS011;58633;49.470;11.004;2023-03-01T08:52:24;24.60;;;12.97;;
6823;SDS011;58633;49.470;11.004;2023-03-01T08:54:50;20.97;;;12.60;;
6823;SDS011;58633;49.470;11.004;2023-03-01T08:57:16;22.83;;;12.57;;
6823;SDS011;58633;49.470;11.004;2023-03-01T08:59:42;22.90;;;13.33;;
6823;SDS011;58633;49.470;11.004;2023-03-01T09:02:10;22.60;;;12.93;;
6823;SDS011;58633;49.470;11.004;2023-03-01T09:04:38;21.57;;;12.37;;
6823;SDS011;58633;49.470;11.004;2023-03-01T09:07:05;21.43;;;12.73;;
6823;SDS011;58633;49.470;11.004;2023-03-01T09:09:31;20.77;;;12.83;;
6823;SDS011;58633;49.470;11.004;2023-03-01T09:11:56;19.97;;;11.97;;
6823;SDS011;58633;49.470;11.004;2023-03-01T09:14:22;19.10;;;11.73;;
6823;SDS011;58633;49.470;11.004;2023-03-01T09:16:48;21.47;;;12.63;;
6823;SDS011;58633;49.470;11.004;2023-03-01T09:19:13;20.23;;;11.90;;
6823;SDS011;58633;49.470;11.004;2023-03-01T09:21:39;22.33;;;12.63;;
6823;SDS011;58633;49.470;11.004;2023-03-01T09:24:06;20.63;;;12.27;;
6823;SDS011;58633;49.470;11.004;2023-03-01T09:26:41;21.83;;;12.13;;
6823;SDS011;58633;49.470;11.004;2023-03-01T09:29:07;22.77;;;12.77;;
6823;SDS011;58633;49.470;11.004;2023-03-01T09:31:34;22.53;;;12.93;;
6823;SDS011;58633;49.470;11.004;2023-03-01T09:33:59;22.13;;;12.27;;
6823;SDS011;58633;49.470;11.004;2023-03-01T09:36:25;21.40;;;12.80;;
6823;SDS011;58633;49.470;11.004;2023-03-01T09:38:51;23.07;;;12.40;;
6823;SDS011;58633;49.470;11.004;2023-03-01T09:43:51;22.67;;;12.30;;
6823;SDS011;58633;49.470;11.004;2023-03-01T09:46:23;18.53;;;11.93;;
6823;SDS011;58633;49.470;11.004;2023-03-01T09:48:51;19.50;;;12.20;;
6823;SDS011;58633;49.470;11.004;2023-03-01T09:51:25;19.27;;;11.93;;
6823;SDS011;58633;49.470;11.004;2023-03-01T09:53:54;18.13;;;12.03;;
6823;SDS011;58633;49.470;11.004;2023-03-01T09:56:24;22.13;;;11.50;;
6823;SDS011;58633;49.470;11.004;2023-03-01T10:04:49;20.00;;;11.70;;
6823;SDS011;58633;49.470;11.004;2023-03-01T10:10:03;18.73;;;11.50;;
6823;SDS011;58633;49.470;11.004;2023-03-01T10:12:33;21.03;;;11.70;;
6823;SDS011;58633;49.470;11.004;2023-03-01T10:15:04;18.13;;;11.40;;
6823;SDS011;58633;49.470;11.004;2023-03-01T10:17:41;18.47;;;11.80;;
6823;SDS011;58633;49.470;11.004;2023-03-01T10:20:19;21.90;;;11.70;;
6823;SDS011;58633;49.470;11.004;2023-03-01T10:22:55;20.40;;;12.60;;
6823;SDS011;58633;49.470;11.004;2023-03-01T10:28:24;19.63;;;11.60;;
6823;SDS011;58633;49.470;11.004;2023-03-01T10:30:55;16.87;;;11.43;;
6823;SDS011;58633;49.470;11.004;2023-03-01T10:33:23;19.80;;;12.00;;
6823;SDS011;58633;49.470;11.004;2023-03-01T10:35:57;21.37;;;12.20;;
6823;SDS011;58633;49.470;11.004;2023-03-01T10:38:23;18.97;;;11.73;;
6823;SDS011;58633;49.470;11.004;2023-03-01T10:40:50;19.37;;;12.00;;
6823;SDS011;58633;49.470;11.004;2023-03-01T10:43:24;18.43;;;11.63;;
6823;SDS011;58633;49.470;11.004;2023-03-01T10:45:51;16.07;;;10.90;;
6823;SDS011;58633;49.470;11.004;2023-03-01T10:48:18;18.90;;;11.53;;
6823;SDS011;58633;49.470;11.004;2023-03-01T10:50:46;17.43;;;11.30;;
6823;SDS011;58633;49.470;11.004;2023-03-01T10:56:09;18.83;;;11.70;;
6823;SDS011;58633;49.470;11.004;2023-03-01T10:58:39;18.37;;;11.93;;
6823;SDS011;58633;49.470;11.004;2023-03-01T11:03:41;20.30;;;11.50;;
6823;SDS011;58633;49.470;11.004;2023-03-01T11:08:36;18.67;;;11.53;;
6823;SDS011;58633;49.470;11.004;2023-03-01T11:11:05;19.57;;;12.33;;
6823;SDS011;58633;49.470;11.004;2023-03-01T11:13:34;20.27;;;12.13;;
6823;SDS011;58633;49.470;11.004;2023-03-01T11:16:05;17.57;;;10.87;;
6823;SDS011;58633;49.470;11.004;2023-03-01T11:18:35;17.50;;;11.30;;
6823;SDS011;58633;49.470;11.004;2023-03-01T11:21:00;17.80;;;11.30;;
6823;SDS011;58633;49.470;11.004;2023-03-01T11:23:28;21.02;;;11.95;;
6823;SDS011;58633;49.470;11.004;2023-03-01T11:25:56;17.98;;;11.80;;
6823;SDS011;58633;49.470;11.004;2023-03-01T11:28:29;19.55;;;11.75;;
6823;SDS011;58633;49.470;11.004;2023-03-01T11:33:35;16.48;;;10.40;;
6823;SDS011;58633;49.470;11.004;2023-03-01T11:38:30;19.02;;;11.48;;
6823;SDS011;58633;49.470;11.004;2023-03-01T11:43:59;15.80;;;10.63;;
6823;SDS011;58633;49.470;11.004;2023-03-01T11:46:38;16.75;;;10.43;;
6823;SDS011;58633;49.470;11.004;2023-03-01T11:49:24;17.83;;;10.80;;
6823;SDS011;58633;49.470;11.004;2023-03-01T12:00:25;17.88;;;11.05;;
6823;SDS011;58633;49.470;11.004;2023-03-01T12:03:16;16.60;;;10.93;;
6823;SDS011;58633;49.470;11.004;2023-03-01T12:08:43;17.48;;;10.88;;
6823;SDS011;58633;49.470;11.004;2023-03-01T12:11:56;15.48;;;10.70;;
6823;SDS011;58633;49.470;11.004;2023-03-01T12:17:30;16.33;;;9.77;;
6823;SDS011;58633;49.470;11.004;2023-03-01T12:23:07;16.40;;;10.55;;
6823;SDS011;58633;49.470;11.004;2023-03-01T12:26:34;14.98;;;10.60;;
6823;SDS011;58633;49.470;11.004;2023-03-01T12:42:23;13.10;;;9.90;;
6823;SDS011;58633;49.470;11.004;2023-03-01T12:45:29;13.45;;;9.88;;
6823;SDS011;58633;49.470;11.004;2023-03-01T12:48:59;15.93;;;10.13;;
6823;SDS011;58633;49.470;11.004;2023-03-01T12:51:17;15.30;;;9.55;;
6823;SDS011;58633;49.470;11.004;2023-03-01T12:53:47;13.25;;;9.07;;
6823;SDS011;58633;49.470;11.004;2023-03-01T12:56:15;13.68;;;9.00;;
6823;SDS011;58633;49.470;11.004;2023-03-01T12:58:47;13.82;;;9.60;;
6823;SDS011;58633;49.470;11.004;2023-03-01T13:01:45;13.38;;;9.93;;
6823;SDS011;58633;49.470;11.004;2023-03-01T13:04:28;13.93;;;9.38;;
6823;SDS011;58633;49.470;11.004;2023-03-01T13:13:08;14.00;;;9.82;;
6823;SDS011;58633;49.470;11.004;2023-03-01T13:15:38;14.25;;;9.90;;
6823;SDS011;58633;49.470;11.004;2023-03-01T13:18:27;14.10;;;10.13;;
6823;SDS011;58633;49.470;11.004;2023-03-01T13:20:54;14.30;;;10.25;;
6823;SDS011;58633;49.470;11.004;2023-03-01T13:31:03;15.13;;;10.30;;
6823;SDS011;58633;49.470;11.004;2023-03-01T13:35:56;16.80;;;10.85;;
6823;SDS011;58633;49.470;11.004;2023-03-01T13:38:44;13.98;;;10.32;;
6823;SDS011;58633;49.470;11.004;2023-03-01T13:41:10;16.30;;;9.40;;
6823;SDS011;58633;49.470;11.004;2023-03-01T13:43:38;12.50;;;9.60;;
6823;SDS011;58633;49.470;11.004;2023-03-01T13:46:16;16.73;;;10.27;;
6823;SDS011;58633;49.470;11.004;2023-03-01T13:48:50;13.00;;;10.20;;
6823;SDS011;58633;49.470;11.004;2023-03-01T13:51:21;15.13;;;9.90;;
6823;SDS011;58633;49.470;11.004;2023-03-01T13:53:50;13.45;;;10.05;;
6823;SDS011;58633;49.470;11.004;2023-03-01T13:56:19;14.82;;;9.27;;
6823;SDS011;58633;49.470;11.004;2023-03-01T13:59:20;12.88;;;9.88;;
6823;SDS011;58633;49.470;11.004;2023-03-01T14:01:57;12.52;;;9.10;;
6823;SDS011;58633;49.470;11.004;2023-03-01T14:06:51;14.15;;;10.73;;
6823;SDS011;58633;49.470;11.004;2023-03-01T14:09:33;13.80;;;9.40;;
6823;SDS011;58633;49.470;11.004;2023-03-01T14:12:16;16.08;;;10.43;;
6823;SDS011;58633;49.470;11.004;2023-03-01T14:14:54;13.77;;;10.30;;
6823;SDS011;58633;49.470;11.004;2023-03-01T14:17:49;15.50;;;9.93;;
6823;SDS011;58633;49.470;11.004;2023-03-01T14:20:25;13.68;;;9.30;;
6823;SDS011;58633;49.470;11.004;2023-03-01T14:23:02;11.98;;;9.30;;
6823;SDS011;58633;49.470;11.004;2023-03-01T14:25:36;13.88;;;9.82;;
6823;SDS011;58633;49.470;11.004;2023-03-01T14:28:10;14.38;;;10.65;;
6823;SDS011;58633;49.470;11.004;2023-03-01T14:30:42;12.65;;;9.85;;
6823;SDS011;58633;49.470;11.004;2023-03-01T14:33:28;14.55;;;10.07;;
6823;SDS011;58633;49.470;11.004;2023-03-01T14:38:36;10.75;;;9.10;;
6823;SDS011;58633;49.470;11.004;2023-03-01T14:41:08;12.90;;;9.55;;
6823;SDS011;58633;49.470;11.004;2023-03-01T14:43:43;14.82;;;10.43;;
6823;SDS011;58633;49.470;11.004;2023-03-01T14:48:44;14.25;;;10.38;;
6823;SDS011;58633;49.470;11.004;2023-03-01T14:51:09;15.55;;;10.45;;
6823;SDS011;58633;49.470;11.004;2023-03-01T14:53:37;13.25;;;10.40;;
6823;SDS011;58633;49.470;11.004;2023-03-01T14:56:02;14.05;;;9.82;;
6823;SDS011;58633;49.470;11.004;2023-03-01T14:58:28;12.30;;;9.57;;
6823;SDS011;58633;49.470;11.004;2023-03-01T15:00:57;14.02;;;10.15;;
6823;SDS011;58633;49.470;11.004;2023-03-01T15:03:35;13.23;;;10.00;;
6823;SDS011;58633;49.470;11.004;2023-03-01T15:06:06;11.57;;;9.75;;
6823;SDS011;58633;49.470;11.004;2023-03-01T15:08:33;15.43;;;9.77;;
6823;SDS011;58633;49.470;11.004;2023-03-01T15:13:32;15.95;;;8.70;;
6823;SDS011;58633;49.470;11.004;2023-03-01T15:16:03;12.32;;;9.15;;
6823;SDS011;58633;49.470;11.004;2023-03-01T15:18:31;13.70;;;9.38;;
6823;SDS011;58633;49.470;11.004;2023-03-01T15:21:19;13.23;;;8.88;;
6823;SDS011;58633;49.470;11.004;2023-03-01T15:23:52;11.57;;;9.25;;
6823;SDS011;58633;49.470;11.004;2023-03-01T15:26:28;14.68;;;9.25;;
6823;SDS011;58633;49.470;11.004;2023-03-01T15:29:02;13.13;;;8.75;;
6823;SDS011;58633;49.470;11.004;2023-03-01T15:31:30;13.55;;;9.00;;
6823;SDS011;58633;49.470;11.004;2023-03-01T15:37:03;10.45;;;8.60;;
6823;SDS011;58633;49.470;11.004;2023-03-01T15:39:41;11.45;;;8.80;;
6823;SDS011;58633;49.470;11.004;2023-03-01T15:45:07;11.55;;;8.57;;
6823;SDS011;58633;49.470;11.004;2023-03-01T15:47:49;13.50;;;9.00;;
6823;SDS011;58633;49.470;11.004;2023-03-01T15:50:22;12.52;;;8.27;;
6823;SDS011;58633;49.470;11.004;2023-03-01T15:52:51;10.70;;;8.45;;
6823;SDS011;58633;49.470;11.004;2023-03-01T15:55:18;12.60;;;9.10;;
6823;SDS011;58633;49.470;11.004;2023-03-01T15:57:46;12.57;;;8.90;;
6823;SDS011;58633;49.470;11.004;2023-03-01T16:00:13;12.05;;;8.57;;
6823;SDS011;58633;49.470;11.004;2023-03-01T16:02:40;11.38;;;8.80;;
6823;SDS011;58633;49.470;11.004;2023-03-01T16:05:14;13.50;;;9.30;;
6823;SDS011;58633;49.470;11.004;2023-03-01T16:07:44;11.05;;;8.68;;
6823;SDS011;58633;49.470;11.004;2023-03-01T16:10:10;13.00;;;9.00;;
6823;SDS011;58633;49.470;11.004;2023-03-01T16:12:35;12.93;;;8.80;;